Time;durP1;ratioP1;P1;durP2;ratioP2;P2;SDS_P1;SDS_P2;PMS_P1;PMS_P2;Temp;Humidity;BMP_temperature;BMP_pressure;BME280_temperature;BME280_humidity;BME280_pressure;Samples;Min_cycle;Max_cycle;Signal;HPM_P1;HPM_P2
2022/03/13 00:00:49;;;;;;;;;;;21.70;43.00;;;;;;6314361;27;20920;-55
2022/03/13 00:03:52;;;;;;;;;;;22.00;42.90;;;;;;6328880;27;20994;-54
2022/03/13 00:06:56;;;;;;;;;;;21.60;43.10;;;;;;6331212;27;20018;-54
2022/03/13 00:09:58;;;;;;;;;;;21.90;43.30;;;;;;6332030;27;20851;-52
2022/03/13 00:13:00;;;;;;;;;;;21.60;43.10;;;;;;6326424;27;19966;-53
2022/03/13 00:16:03;;;;;;;;;;;21.80;42.90;;;;;;6331177;27;19977;-56
2022/03/13 00:19:07;;;;;;;;;;;21.60;42.90;;;;;;6313343;27;20839;-54
2022/03/13 00:22:14;;;;;;;;;;;21.80;43.30;;;;;;6330517;27;20004;-54
2022/03/13 00:25:15;;;;;;;;;;;22.10;43.60;;;;;;6330311;27;20823;-56
2022/03/13 00:28:16;;;;;;;;;;;22.00;43.40;;;;;;6333229;27;20042;-54
2022/03/13 00:31:19;;;;;;;;;;;21.70;43.30;;;;;;6334420;27;19974;-52
2022/03/13 00:34:21;;;;;;;;;;;22.10;43.50;;;;;;6333502;27;19946;-56
2022/03/13 00:37:22;;;;;;;;;;;21.70;43.30;;;;;;6330381;27;20603;-55
2022/03/13 00:40:23;;;;;;;;;;;21.70;43.30;;;;;;6333463;27;19923;-53
2022/03/13 00:43:28;;;;;;;;;;;21.70;43.40;;;;;;6332654;27;19923;-54
2022/03/13 00:46:29;;;;;;;;;;;21.70;43.20;;;;;;6315531;27;20742;-55
2022/03/13 00:49:35;;;;;;;;;;;22.50;43.70;;;;;;6334599;27;19978;-54
2022/03/13 00:52:36;;;;;;;;;;;21.90;43.30;;;;;;6311728;27;19938;-54
2022/03/13 00:55:37;;;;;;;;;;;22.10;43.60;;;;;;6331931;27;20992;-54
2022/03/13 00:58:40;;;;;;;;;;;22.00;43.40;;;;;;6332169;27;19983;-56
2022/03/13 01:01:42;;;;;;;;;;;21.90;43.40;;;;;;6332582;27;19978;-56
2022/03/13 01:04:48;;;;;;;;;;;21.60;43.30;;;;;;6335281;27;20042;-52
2022/03/13 01:07:50;;;;;;;;;;;21.60;43.30;;;;;;6334103;27;19978;-54
2022/03/13 01:10:52;;;;;;;;;;;21.90;43.40;;;;;;6336951;27;19963;-55
2022/03/13 01:13:54;;;;;;;;;;;21.90;43.60;;;;;;6340448;27;20188;-53
2022/03/13 01:16:59;;;;;;;;;;;21.90;43.40;;;;;;6335452;27;20014;-53
2022/03/13 01:20:05;;;;;;;;;;;21.50;43.20;;;;;;6332177;27;19927;-56
2022/03/13 01:23:07;;;;;;;;;;;21.80;43.40;;;;;;6336855;27;20066;-54
2022/03/13 01:26:23;;;;;;;;;;;22.10;43.60;;;;;;6333825;27;20806;-51
2022/03/13 01:29:25;;;;;;;;;;;21.50;43.20;;;;;;6317446;27;20038;-55
2022/03/13 01:32:26;;;;;;;;;;;21.50;43.40;;;;;;6332381;27;20774;-55
2022/03/13 01:35:28;;;;;;;;;;;22.30;43.80;;;;;;6325284;27;20038;-56
2022/03/13 01:38:32;;;;;;;;;;;21.40;43.40;;;;;;6331059;27;20065;-55
2022/03/13 01:41:35;;;;;;;;;;;21.90;43.60;;;;;;6312718;27;20692;-54
2022/03/13 01:44:36;;;;;;;;;;;21.90;43.60;;;;;;6333604;27;20847;-55
2022/03/13 01:47:38;;;;;;;;;;;21.70;43.60;;;;;;6333476;27;19973;-55
2022/03/13 01:50:40;;;;;;;;;;;21.40;43.10;;;;;;6336088;27;19931;-51
2022/03/13 01:53:42;;;;;;;;;;;21.90;43.80;;;;;;6332194;27;19927;-51
2022/03/13 01:56:43;;;;;;;;;;;22.20;43.70;;;;;;6331668;27;19938;-52
2022/03/13 01:59:45;;;;;;;;;;;21.70;43.70;;;;;;6332637;27;19936;-52
2022/03/13 02:02:47;;;;;;;;;;;21.50;43.40;;;;;;6337761;27;20520;-53
2022/03/13 02:05:49;;;;;;;;;;;21.70;43.60;;;;;;6315410;27;20258;-55
2022/03/13 02:08:51;;;;;;;;;;;21.60;43.60;;;;;;6324106;27;20046;-54
2022/03/13 02:11:52;;;;;;;;;;;21.60;43.60;;;;;;6320778;27;19959;-54
2022/03/13 02:14:54;;;;;;;;;;;21.40;43.50;;;;;;6316469;27;20311;-51
2022/03/13 02:17:55;;;;;;;;;;;21.70;43.70;;;;;;6299807;27;20357;-52
2022/03/13 02:20:57;;;;;;;;;;;21.30;43.50;;;;;;6322808;27;20042;-52
2022/03/13 02:24:00;;;;;;;;;;;22.00;43.70;;;;;;6325008;27;19980;-54
2022/03/13 02:27:04;;;;;;;;;;;21.90;43.60;;;;;;6324630;27;19927;-53
2022/03/13 02:30:07;;;;;;;;;;;21.70;43.60;;;;;;6325916;27;20071;-53
2022/03/13 02:33:08;;;;;;;;;;;21.30;43.40;;;;;;6325005;27;20091;-54
2022/03/13 02:36:21;;;;;;;;;;;21.70;43.80;;;;;;6317694;27;20105;-53
2022/03/13 02:39:23;;;;;;;;;;;21.90;43.10;;;;;;6305569;27;19927;-53
2022/03/13 02:42:24;;;;;;;;;;;21.70;43.60;;;;;;6323809;27;20053;-54
2022/03/13 02:45:28;;;;;;;;;;;21.30;43.50;;;;;;6325369;27;20231;-52
2022/03/13 02:48:29;;;;;;;;;;;21.40;43.40;;;;;;6325637;27;20176;-53
2022/03/13 02:51:30;;;;;;;;;;;21.70;43.80;;;;;;6325566;27;19938;-53
2022/03/13 02:54:33;;;;;;;;;;;21.50;43.40;;;;;;6325238;27;20651;-54
2022/03/13 02:57:35;;;;;;;;;;;22.10;43.90;;;;;;6326829;27;19996;-55
2022/03/13 03:00:40;;;;;;;;;;;21.50;43.70;;;;;;6328546;27;19990;-52
2022/03/13 03:03:42;;;;;;;;;;;21.30;43.30;;;;;;6314601;27;20291;-54
2022/03/13 03:06:50;;;;;;;;;;;21.70;43.70;;;;;;6327146;27;20244;-56
2022/03/13 03:09:52;;;;;;;;;;;21.40;43.50;;;;;;6328578;27;20031;-51
2022/03/13 03:12:54;;;;;;;;;;;21.40;43.50;;;;;;6329083;27;20362;-56
2022/03/13 03:15:55;;;;;;;;;;;21.30;43.50;;;;;;6327263;27;19938;-56
2022/03/13 03:18:59;;;;;;;;;;;21.70;43.80;;;;;;6310959;27;19927;-53
2022/03/13 03:22:01;;;;;;;;;;;21.30;43.60;;;;;;6330357;27;20045;-54
2022/03/13 03:25:03;;;;;;;;;;;22.10;43.70;;;;;;6329904;27;20424;-53
2022/03/13 03:28:05;;;;;;;;;;;21.60;43.40;;;;;;6326526;27;20400;-50
2022/03/13 03:31:06;;;;;;;;;;;21.40;43.50;;;;;;6311174;27;20102;-54
2022/03/13 03:34:09;;;;;;;;;;;21.40;43.60;;;;;;6323248;27;19935;-52
2022/03/13 03:37:10;;;;;;;;;;;21.80;43.80;;;;;;6332195;27;19985;-52
2022/03/13 03:40:14;;;;;;;;;;;21.30;43.70;;;;;;6331229;27;20393;-54
2022/03/13 03:43:15;;;;;;;;;;;21.90;43.80;;;;;;6328734;27;20778;-54
2022/03/13 03:46:16;;;;;;;;;;;21.80;43.80;;;;;;6330688;27;20449;-52
2022/03/13 03:49:18;;;;;;;;;;;21.40;43.70;;;;;;6332165;27;19926;-54
2022/03/13 03:52:19;;;;;;;;;;;21.30;43.60;;;;;;6330191;27;20002;-52
2022/03/13 03:55:22;;;;;;;;;;;21.30;43.50;;;;;;6326263;27;20092;-54
2022/03/13 03:58:23;;;;;;;;;;;21.80;43.40;;;;;;6329893;27;20172;-53
2022/03/13 04:01:34;;;;;;;;;;;21.40;43.70;;;;;;6326704;27;19936;-54
2022/03/13 04:04:36;;;;;;;;;;;21.30;43.50;;;;;;6329230;27;20705;-52
2022/03/13 04:07:37;;;;;;;;;;;21.80;43.90;;;;;;6324556;27;20672;-52
2022/03/13 04:10:39;;;;;;;;;;;21.40;43.60;;;;;;6329160;27;20056;-55
2022/03/13 04:13:41;;;;;;;;;;;21.60;43.80;;;;;;6323908;27;20712;-54
2022/03/13 04:16:47;;;;;;;;;;;21.40;43.70;;;;;;6328855;27;20481;-52
2022/03/13 04:19:49;;;;;;;;;;;21.60;43.70;;;;;;6311323;27;19927;-53
2022/03/13 04:22:50;;;;;;;;;;;21.90;43.80;;;;;;6326868;27;19981;-51
2022/03/13 04:25:54;;;;;;;;;;;21.40;43.20;;;;;;6309809;27;19927;-54
2022/03/13 04:28:55;;;;;;;;;;;21.80;43.90;;;;;;6326938;27;19934;-54
2022/03/13 04:31:57;;;;;;;;;;;21.70;43.90;;;;;;6328839;27;20119;-54
2022/03/13 04:34:58;;;;;;;;;;;21.50;43.80;;;;;;6310447;27;19930;-54
2022/03/13 04:38:00;;;;;;;;;;;21.30;43.70;;;;;;6329301;27;20041;-53
2022/03/13 04:41:03;;;;;;;;;;;21.30;43.30;;;;;;6325025;27;20228;-57
2022/03/13 04:44:05;;;;;;;;;;;21.40;43.70;;;;;;6331229;27;20556;-52
2022/03/13 04:47:07;;;;;;;;;;;21.70;43.80;;;;;;6328767;27;20388;-54
2022/03/13 04:50:09;;;;;;;;;;;21.20;43.70;;;;;;6331308;27;20132;-55
2022/03/13 04:53:11;;;;;;;;;;;21.30;43.70;;;;;;6327356;27;19970;-51
2022/03/13 04:56:13;;;;;;;;;;;21.60;43.80;;;;;;6327362;27;20360;-54
2022/03/13 04:59:14;;;;;;;;;;;21.30;43.70;;;;;;6327803;27;19958;-52
2022/03/13 05:02:16;;;;;;;;;;;21.90;44.10;;;;;;6327367;27;19934;-53
2022/03/13 05:05:21;;;;;;;;;;;21.50;44.00;;;;;;6328332;27;20000;-50
2022/03/13 05:08:23;;;;;;;;;;;21.30;43.90;;;;;;6327516;27;20072;-54
2022/03/13 05:11:25;;;;;;;;;;;21.20;43.80;;;;;;6327025;27;20441;-51
2022/03/13 05:14:27;;;;;;;;;;;21.50;43.80;;;;;;6326940;27;19927;-53
2022/03/13 05:17:28;;;;;;;;;;;21.30;43.80;;;;;;6323090;27;20295;-52
2022/03/13 05:20:31;;;;;;;;;;;21.50;44.00;;;;;;6322335;27;20348;-52
2022/03/13 05:23:32;;;;;;;;;;;21.40;44.00;;;;;;6315066;27;20055;-52
2022/03/13 05:26:34;;;;;;;;;;;21.70;43.70;;;;;;6305814;27;20458;-52
2022/03/13 05:29:36;;;;;;;;;;;21.20;43.60;;;;;;6321699;27;20250;-52
2022/03/13 05:32:38;;;;;;;;;;;22.00;43.60;;;;;;6323288;27;20153;-52
2022/03/13 05:35:39;;;;;;;;;;;21.20;43.90;;;;;;6323773;27;20421;-55
2022/03/13 05:38:41;;;;;;;;;;;21.60;44.00;;;;;;6325594;27;20248;-53
2022/03/13 05:41:44;;;;;;;;;;;21.50;43.30;;;;;;6322058;27;20740;-55
2022/03/13 05:44:46;;;;;;;;;;;21.40;43.90;;;;;;6322548;27;20039;-52
2022/03/13 05:47:49;;;;;;;;;;;21.10;43.90;;;;;;6324016;27;19933;-52
2022/03/13 05:50:51;;;;;;;;;;;21.50;44.00;;;;;;6325841;27;20683;-50
2022/03/13 05:53:52;;;;;;;;;;;22.00;44.30;;;;;;6323152;27;20050;-50
2022/03/13 05:56:54;;;;;;;;;;;21.40;43.90;;;;;;6323694;27;20175;-53
2022/03/13 05:59:55;;;;;;;;;;;21.30;44.00;;;;;;6322676;27;20231;-53
2022/03/13 06:02:58;;;;;;;;;;;21.20;44.00;;;;;;6321523;27;20042;-50
2022/03/13 06:06:01;;;;;;;;;;;21.30;44.00;;;;;;6325524;27;20116;-55
2022/03/13 06:09:02;;;;;;;;;;;21.50;44.10;;;;;;6323810;27;20187;-53
2022/03/13 06:12:05;;;;;;;;;;;21.40;43.90;;;;;;6316755;27;20299;-52
2022/03/13 06:15:07;;;;;;;;;;;21.60;44.20;;;;;;6306463;27;20375;-51
2022/03/13 06:18:10;;;;;;;;;;;21.60;44.20;;;;;;6320866;27;20011;-56
2022/03/13 06:21:13;;;;;;;;;;;21.20;43.90;;;;;;6316576;27;20046;-51
2022/03/13 06:24:16;;;;;;;;;;;21.90;44.10;;;;;;6324643;27;20041;-53
2022/03/13 06:27:18;;;;;;;;;;;21.40;44.00;;;;;;6321967;27;19966;-51
2022/03/13 06:30:20;;;;;;;;;;;21.60;44.30;;;;;;6324448;27;20418;-51
2022/03/13 06:33:21;;;;;;;;;;;21.40;44.20;;;;;;6325598;27;20063;-55
2022/03/13 06:36:23;;;;;;;;;;;21.10;44.00;;;;;;6324823;27;19966;-55
2022/03/13 06:39:25;;;;;;;;;;;21.50;44.30;;;;;;6326735;27;19931;-55
2022/03/13 06:42:28;;;;;;;;;;;21.10;44.20;;;;;;6325838;27;19931;-51
2022/03/13 06:45:29;;;;;;;;;;;21.30;44.10;;;;;;6324591;27;19970;-53
2022/03/13 06:48:31;;;;;;;;;;;21.30;44.20;;;;;;6323518;27;19975;-53
2022/03/13 06:51:33;;;;;;;;;;;21.10;44.00;;;;;;6325310;27;20110;-55
2022/03/13 06:54:35;;;;;;;;;;;21.30;44.10;;;;;;6322072;27;20559;-51
2022/03/13 06:57:37;;;;;;;;;;;21.30;44.00;;;;;;6324539;27;20029;-51
2022/03/13 07:00:38;;;;;;;;;;;21.20;44.00;;;;;;6325031;27;19957;-54
2022/03/13 07:03:40;;;;;;;;;;;21.60;44.60;;;;;;6322206;27;19931;-52
2022/03/13 07:06:41;;;;;;;;;;;21.30;44.30;;;;;;6319349;27;19935;-52
2022/03/13 07:09:44;;;;;;;;;;;21.50;44.30;;;;;;6321103;27;21078;-52
2022/03/13 07:12:46;;;;;;;;;;;21.20;44.20;;;;;;6321692;27;20658;-54
2022/03/13 07:15:48;;;;;;;;;;;21.30;44.20;;;;;;6322234;27;20021;-51
2022/03/13 07:18:49;;;;;;;;;;;21.30;44.30;;;;;;6321892;27;19933;-53
2022/03/13 07:21:51;;;;;;;;;;;21.60;44.50;;;;;;6320275;27;20674;-54
2022/03/13 07:24:52;;;;;;;;;;;21.00;44.30;;;;;;6322040;27;20346;-55
2022/03/13 07:27:54;;;;;;;;;;;21.60;44.30;;;;;;6321528;27;20940;-53
2022/03/13 07:30:55;;;;;;;;;;;21.70;44.50;;;;;;6322208;27;20417;-52
2022/03/13 07:33:57;;;;;;;;;;;21.40;44.30;;;;;;6321824;27;20422;-55
2022/03/13 07:36:58;;;;;;;;;;;21.10;44.20;;;;;;6319360;27;20002;-50
2022/03/13 07:40:01;;;;;;;;;;;21.30;44.30;;;;;;6319729;27;20160;-53
2022/03/13 07:43:03;;;;;;;;;;;21.20;44.40;;;;;;6307518;27;20233;-53
2022/03/13 07:46:05;;;;;;;;;;;21.50;44.30;;;;;;6325936;27;20059;-53
2022/03/13 07:49:07;;;;;;;;;;;21.50;44.40;;;;;;6322319;27;20004;-52
2022/03/13 07:52:08;;;;;;;;;;;21.20;44.30;;;;;;6322816;27;20187;-50
2022/03/13 07:55:10;;;;;;;;;;;21.30;44.30;;;;;;6324608;27;20716;-52
2022/03/13 07:58:12;;;;;;;;;;;21.80;44.30;;;;;;6320418;27;19931;-55
2022/03/13 08:01:16;;;;;;;;;;;21.10;43.90;;;;;;6324600;27;20567;-52
2022/03/13 08:04:17;;;;;;;;;;;21.80;44.60;;;;;;6321189;27;20509;-53
2022/03/13 08:07:19;;;;;;;;;;;21.70;44.60;;;;;;6325006;27;20284;-54
2022/03/13 08:10:23;;;;;;;;;;;21.50;44.50;;;;;;6325037;27;20224;-54
2022/03/13 08:13:25;;;;;;;;;;;21.20;44.30;;;;;;6324174;27;19927;-51
2022/03/13 08:16:27;;;;;;;;;;;21.60;44.30;;;;;;6321458;27;20297;-51
2022/03/13 08:19:28;;;;;;;;;;;21.00;44.10;;;;;;6319800;27;19927;-53
2022/03/13 08:22:30;;;;;;;;;;;21.50;44.50;;;;;;6321846;27;20062;-51
2022/03/13 08:25:31;;;;;;;;;;;21.40;44.50;;;;;;6320255;27;19935;-53
2022/03/13 08:28:33;;;;;;;;;;;21.60;44.30;;;;;;6322947;27;20834;-53
2022/03/13 08:31:40;;;;;;;;;;;22.30;44.80;;;;;;6324712;27;20270;-52
2022/03/13 08:34:41;;;;;;;;;;;21.40;44.30;;;;;;6304904;27;20270;-53
2022/03/13 08:37:42;;;;;;;;;;;21.10;44.30;;;;;;6327558;27;19931;-53
2022/03/13 08:40:45;;;;;;;;;;;21.30;44.30;;;;;;6311243;27;20354;-54
2022/03/13 08:43:47;;;;;;;;;;;21.20;43.70;;;;;;6316532;27;20238;-54
2022/03/13 08:46:49;;;;;;;;;;;21.40;44.20;;;;;;6321676;27;20298;-53
2022/03/13 08:49:50;;;;;;;;;;;21.50;44.60;;;;;;6322654;27;19977;-53
2022/03/13 08:52:51;;;;;;;;;;;21.40;44.40;;;;;;6326268;27;20081;-51
2022/03/13 08:55:58;;;;;;;;;;;21.70;44.60;;;;;;6320567;27;20276;-53
2022/03/13 08:59:00;;;;;;;;;;;21.30;44.20;;;;;;6321560;27;19974;-53
2022/03/13 09:02:01;;;;;;;;;;;21.70;44.60;;;;;;6320637;27;20057;-52
2022/03/13 09:05:03;;;;;;;;;;;21.40;44.40;;;;;;6319126;27;20453;-51
2022/03/13 09:08:04;;;;;;;;;;;21.30;44.30;;;;;;6320175;27;20349;-55
2022/03/13 09:11:07;;;;;;;;;;;21.50;44.50;;;;;;6320387;27;20049;-53
2022/03/13 09:14:09;;;;;;;;;;;21.30;44.30;;;;;;6320270;27;20494;-52
2022/03/13 09:17:10;;;;;;;;;;;21.80;44.50;;;;;;6319025;27;20385;-55
2022/03/13 09:20:12;;;;;;;;;;;21.40;44.20;;;;;;6320895;27;20313;-51
2022/03/13 09:23:13;;;;;;;;;;;21.40;44.00;;;;;;6322114;27;20016;-53
2022/03/13 09:26:15;;;;;;;;;;;21.60;44.00;;;;;;6321180;27;20038;-55
2022/03/13 09:29:20;;;;;;;;;;;21.60;43.90;;;;;;6318465;27;20072;-53
2022/03/13 09:32:23;;;;;;;;;;;22.10;43.70;;;;;;6314019;27;20143;-52
2022/03/13 09:35:24;;;;;;;;;;;21.70;43.70;;;;;;6318165;27;19970;-53
2022/03/13 09:38:26;;;;;;;;;;;22.00;43.70;;;;;;6319126;27;20809;-52
2022/03/13 09:41:27;;;;;;;;;;;22.40;44.10;;;;;;6305241;27;20176;-54
2022/03/13 09:44:33;;;;;;;;;;;22.00;43.80;;;;;;6320101;27;19926;-52
2022/03/13 09:47:35;;;;;;;;;;;21.70;43.40;;;;;;6320178;27;20317;-51
2022/03/13 09:50:39;;;;;;;;;;;21.80;43.40;;;;;;6299926;27;20136;-52
2022/03/13 09:53:40;;;;;;;;;;;21.80;43.40;;;;;;6321629;27;20072;-54
2022/03/13 09:56:42;;;;;;;;;;;21.90;43.50;;;;;;6317529;27;19958;-53
2022/03/13 09:59:45;;;;;;;;;;;21.80;43.30;;;;;;6320787;27;20050;-54
2022/03/13 10:02:47;;;;;;;;;;;22.50;43.60;;;;;;6301617;27;20171;-51
2022/03/13 10:05:50;;;;;;;;;;;21.90;43.10;;;;;;6315425;27;20109;-53
2022/03/13 10:08:51;;;;;;;;;;;22.00;43.20;;;;;;6298919;27;20656;-52
2022/03/13 10:12:03;;;;;;;;;;;21.90;43.30;;;;;;6318250;27;20812;-52
2022/03/13 10:15:06;;;;;;;;;;;22.00;43.00;;;;;;6316320;27;19933;-52
2022/03/13 10:18:11;;;;;;;;;;;22.10;43.10;;;;;;6300529;27;19981;-54
2022/03/13 10:21:16;;;;;;;;;;;22.20;43.10;;;;;;6318529;27;20057;-52
2022/03/13 10:24:17;;;;;;;;;;;22.40;43.10;;;;;;6318327;27;20058;-54
2022/03/13 10:27:20;;;;;;;;;;;22.10;43.10;;;;;;6318801;27;20001;-52
2022/03/13 10:30:23;;;;;;;;;;;22.00;42.80;;;;;;6301501;27;20041;-52
2022/03/13 10:33:25;;;;;;;;;;;22.40;43.10;;;;;;6319705;27;21135;-52
2022/03/13 10:36:31;;;;;;;;;;;22.60;43.20;;;;;;6321060;27;19931;-53
2022/03/13 10:39:34;;;;;;;;;;;22.20;42.80;;;;;;6280869;27;20014;-53
2022/03/13 10:42:43;;;;;;;;;;;22.50;43.00;;;;;;6293502;27;20394;-54
2022/03/13 10:45:51;;;;;;;;;;;22.20;42.80;;;;;;6319248;27;20593;-54
2022/03/13 10:48:54;;;;;;;;;;;22.40;42.90;;;;;;6299377;27;21095;-53
2022/03/13 10:51:57;;;;;;;;;;;23.00;43.80;;;;;;6301877;27;20362;-51
2022/03/13 10:55:14;;;;;;;;;;;22.80;43.10;;;;;;6319972;27;19985;-55
2022/03/13 10:58:16;;;;;;;;;;;22.40;42.80;;;;;;6319068;27;20632;-53
2022/03/13 11:01:19;;;;;;;;;;;23.10;43.10;;;;;;6319261;27;20034;-52
2022/03/13 11:04:22;;;;;;;;;;;22.50;42.70;;;;;;6317650;27;20303;-52
2022/03/13 11:07:26;;;;;;;;;;;22.50;42.50;;;;;;6320311;27;19963;-54
2022/03/13 11:10:28;;;;;;;;;;;22.40;42.60;;;;;;6321042;27;20066;-54
2022/03/13 11:13:30;;;;;;;;;;;22.50;42.70;;;;;;6318117;27;20438;-50
2022/03/13 11:16:33;;;;;;;;;;;22.70;42.70;;;;;;6318752;27;19954;-53
2022/03/13 11:19:38;;;;;;;;;;;23.00;42.90;;;;;;6304442;27;19999;-57
2022/03/13 11:22:40;;;;;;;;;;;23.00;42.80;;;;;;6324189;27;19927;-52
2022/03/13 11:25:41;;;;;;;;;;;22.80;42.80;;;;;;6324339;27;20349;-53
2022/03/13 11:28:43;;;;;;;;;;;22.60;42.60;;;;;;6321949;27;20729;-54
2022/03/13 11:31:47;;;;;;;;;;;22.60;42.50;;;;;;6323215;27;19932;-52
2022/03/13 11:35:13;;;;;;;;;;;22.90;43.30;;;;;;6321121;27;19966;-54
2022/03/13 11:38:19;;;;;;;;;;;22.70;42.50;;;;;;6321709;27;19926;-53
2022/03/13 11:41:31;;;;;;;;;;;23.00;42.50;;;;;;6319729;27;20037;-54
2022/03/13 11:44:37;;;;;;;;;;;22.80;42.50;;;;;;6300522;27;22146;-53
2022/03/13 11:47:39;;;;;;;;;;;23.00;42.60;;;;;;6321951;27;20311;-52
2022/03/13 11:50:46;;;;;;;;;;;22.70;42.50;;;;;;6321704;27;20784;-55
2022/03/13 11:53:49;;;;;;;;;;;22.70;42.30;;;;;;6319721;27;20058;-54
2022/03/13 11:56:51;;;;;;;;;;;22.60;42.40;;;;;;6320778;27;20198;-52
2022/03/13 12:00:05;;;;;;;;;;;22.80;42.30;;;;;;6319399;27;20467;-55
2022/03/13 12:03:08;;;;;;;;;;;23.30;42.50;;;;;;6318205;27;20875;-52
2022/03/13 12:06:30;;;;;;;;;;;23.00;42.20;;;;;;6322982;27;19927;-51
2022/03/13 12:09:32;;;;;;;;;;;22.70;42.20;;;;;;6307193;27;19934;-54
2022/03/13 12:12:54;;;;;;;;;;;23.50;42.50;;;;;;6304195;27;20580;-52
2022/03/13 12:16:10;;;;;;;;;;;23.00;42.40;;;;;;6307957;27;20003;-54
2022/03/13 12:19:17;;;;;;;;;;;23.40;42.50;;;;;;6321687;27;20396;-55
2022/03/13 12:22:23;;;;;;;;;;;22.70;41.80;;;;;;6321058;27;19963;-52
2022/03/13 12:25:25;;;;;;;;;;;22.80;42.20;;;;;;6319875;27;19963;-56
2022/03/13 12:28:34;;;;;;;;;;;23.10;42.20;;;;;;6320233;27;20272;-51
2022/03/13 12:31:39;;;;;;;;;;;23.20;42.20;;;;;;6320799;27;19931;-53
2022/03/13 12:34:41;;;;;;;;;;;23.20;42.20;;;;;;6299413;27;20004;-57
2022/03/13 12:37:51;;;;;;;;;;;23.10;42.30;;;;;;6298543;27;20448;-56
2022/03/13 12:40:53;;;;;;;;;;;23.20;42.20;;;;;;6302120;27;19935;-54
2022/03/13 12:43:57;;;;;;;;;;;23.40;42.30;;;;;;6305532;27;19978;-54
2022/03/13 12:46:59;;;;;;;;;;;23.20;42.20;;;;;;6318942;27;19927;-56
2022/03/13 12:50:01;;;;;;;;;;;23.30;42.10;;;;;;6318720;27;20236;-53
2022/03/13 12:53:03;;;;;;;;;;;22.80;42.00;;;;;;6319794;27;21001;-52
2022/03/13 12:56:05;;;;;;;;;;;23.00;42.10;;;;;;6318371;27;20364;-54
2022/03/13 12:59:06;;;;;;;;;;;22.90;41.70;;;;;;6319524;27;20139;-55
2022/03/13 13:02:10;;;;;;;;;;;23.00;42.10;;;;;;6317714;27;20836;-52
2022/03/13 13:05:13;;;;;;;;;;;23.50;42.10;;;;;;6315685;27;19961;-53
2022/03/13 13:08:14;;;;;;;;;;;23.30;41.90;;;;;;6297069;27;20124;-54
2022/03/13 13:11:27;;;;;;;;;;;23.00;41.90;;;;;;6314485;27;20183;-54
2022/03/13 13:14:30;;;;;;;;;;;23.40;42.00;;;;;;6312045;27;21613;-52
2022/03/13 13:17:32;;;;;;;;;;;23.30;42.00;;;;;;6317430;27;20061;-53
2022/03/13 13:20:33;;;;;;;;;;;23.20;42.00;;;;;;6310627;27;19931;-54
2022/03/13 13:23:35;;;;;;;;;;;23.20;42.00;;;;;;6320609;27;20045;-51
2022/03/13 13:26:40;;;;;;;;;;;23.20;42.00;;;;;;6314869;27;20189;-53
2022/03/13 13:30:15;;;;;;;;;;;23.10;41.70;;;;;;6314958;27;19940;-53
2022/03/13 13:33:17;;;;;;;;;;;23.40;41.90;;;;;;6317619;27;20192;-53
2022/03/13 13:36:19;;;;;;;;;;;23.20;41.90;;;;;;6310252;27;20691;-53
2022/03/13 13:39:22;;;;;;;;;;;23.40;41.90;;;;;;6296066;27;20281;-53
2022/03/13 13:42:24;;;;;;;;;;;22.90;41.60;;;;;;6310942;27;20033;-55
2022/03/13 13:45:34;;;;;;;;;;;22.80;41.50;;;;;;6318759;27;20249;-53
2022/03/13 13:48:45;;;;;;;;;;;23.20;41.70;;;;;;6293086;27;20130;-55
2022/03/13 13:51:46;;;;;;;;;;;23.30;41.70;;;;;;6311084;27;20066;-54
2022/03/13 13:54:48;;;;;;;;;;;23.30;41.70;;;;;;6311565;27;20289;-52
2022/03/13 13:58:07;;;;;;;;;;;23.20;41.80;;;;;;6308280;27;20221;-56
2022/03/13 14:01:23;;;;;;;;;;;23.00;41.60;;;;;;6292062;27;20354;-52
2022/03/13 14:04:25;;;;;;;;;;;22.80;41.40;;;;;;6272628;27;20546;-53
2022/03/13 14:07:27;;;;;;;;;;;22.90;41.60;;;;;;6309152;27;19974;-54
2022/03/13 14:10:28;;;;;;;;;;;23.20;41.30;;;;;;6310140;27;20791;-53
2022/03/13 14:13:30;;;;;;;;;;;23.00;41.70;;;;;;6310981;27;20025;-53
2022/03/13 14:16:32;;;;;;;;;;;22.90;41.40;;;;;;6305963;27;20049;-53
2022/03/13 14:19:53;;;;;;;;;;;22.90;41.50;;;;;;6294121;27;19931;-52
2022/03/13 14:22:55;;;;;;;;;;;22.90;41.50;;;;;;6313891;27;20263;-51
2022/03/13 14:25:56;;;;;;;;;;;23.10;41.70;;;;;;6313106;27;20053;-53
2022/03/13 14:28:58;;;;;;;;;;;23.00;41.60;;;;;;6313066;27;20340;-53
2022/03/13 14:32:00;;;;;;;;;;;23.10;41.60;;;;;;6312049;27;19931;-54
2022/03/13 14:35:02;;;;;;;;;;;23.40;41.70;;;;;;6312818;27;20470;-53
2022/03/13 14:38:03;;;;;;;;;;;22.80;41.30;;;;;;6313085;27;19975;-55
2022/03/13 14:41:13;;;;;;;;;;;23.60;41.80;;;;;;6311557;27;20269;-54
2022/03/13 14:44:14;;;;;;;;;;;23.00;41.30;;;;;;6291143;27;20286;-51
2022/03/13 14:47:16;;;;;;;;;;;23.00;41.60;;;;;;6310116;27;20404;-52
2022/03/13 14:50:38;;;;;;;;;;;23.30;41.80;;;;;;6293332;27;20193;-53
2022/03/13 14:53:40;;;;;;;;;;;23.40;41.00;;;;;;6309519;27;20199;-50
2022/03/13 14:56:41;;;;;;;;;;;23.00;41.40;;;;;;6312441;27;20233;-55
2022/03/13 14:59:43;;;;;;;;;;;23.30;41.30;;;;;;6310682;27;20636;-57
2022/03/13 15:02:44;;;;;;;;;;;23.20;41.60;;;;;;6311528;27;19931;-52
2022/03/13 15:05:46;;;;;;;;;;;23.00;41.40;;;;;;6310921;27;20639;-53
2022/03/13 15:08:48;;;;;;;;;;;23.20;41.60;;;;;;6310090;27;19932;-53
2022/03/13 15:11:50;;;;;;;;;;;23.50;41.80;;;;;;6311676;27;20160;-55
2022/03/13 15:14:51;;;;;;;;;;;23.20;41.60;;;;;;6305889;27;20265;-53
2022/03/13 15:17:55;;;;;;;;;;;23.20;41.70;;;;;;6309188;27;20720;-55
2022/03/13 15:20:56;;;;;;;;;;;23.10;41.50;;;;;;6309704;27;20288;-54
2022/03/13 15:23:58;;;;;;;;;;;23.30;41.60;;;;;;6310093;27;20263;-53
2022/03/13 15:26:59;;;;;;;;;;;23.40;41.60;;;;;;6311622;27;19982;-55
2022/03/13 15:30:01;;;;;;;;;;;23.40;41.70;;;;;;6283857;27;20099;-56
2022/03/13 15:33:02;;;;;;;;;;;23.20;41.50;;;;;;6307528;27;19931;-53
2022/03/13 15:36:04;;;;;;;;;;;23.00;41.50;;;;;;6306468;27;19934;-52
2022/03/13 15:39:05;;;;;;;;;;;23.20;41.50;;;;;;6310533;27;20337;-54
2022/03/13 15:42:07;;;;;;;;;;;23.70;41.80;;;;;;6303556;27;20177;-54
2022/03/13 15:45:09;;;;;;;;;;;23.40;41.70;;;;;;6309565;27;20339;-53
2022/03/13 15:48:11;;;;;;;;;;;23.20;41.50;;;;;;6308087;27;20274;-52
2022/03/13 15:51:13;;;;;;;;;;;23.20;41.50;;;;;;6304457;27;20588;-53
2022/03/13 15:54:15;;;;;;;;;;;23.40;41.60;;;;;;6308217;27;20469;-53
2022/03/13 15:57:17;;;;;;;;;;;23.10;41.50;;;;;;6307376;27;19985;-56
2022/03/13 16:00:19;;;;;;;;;;;23.00;41.50;;;;;;6300839;27;20305;-53
2022/03/13 16:03:20;;;;;;;;;;;23.40;41.60;;;;;;6306473;27;20221;-53
2022/03/13 16:06:22;;;;;;;;;;;23.30;41.60;;;;;;6292462;27;20823;-53
2022/03/13 16:09:24;;;;;;;;;;;23.00;41.30;;;;;;6304869;27;19970;-52
2022/03/13 16:12:26;;;;;;;;;;;23.50;41.20;;;;;;6310829;27;20263;-56
2022/03/13 16:15:27;;;;;;;;;;;23.40;41.60;;;;;;6308934;27;19998;-54
2022/03/13 16:18:29;;;;;;;;;;;23.00;41.40;;;;;;6315621;27;19963;-55
2022/03/13 16:21:31;;;;;;;;;;;23.40;41.70;;;;;;6313126;27;20045;-56
2022/03/13 16:24:32;;;;;;;;;;;22.90;41.40;;;;;;6312199;27;19927;-52
2022/03/13 16:27:34;;;;;;;;;;;23.50;41.50;;;;;;6310356;27;19931;-51
2022/03/13 16:30:35;;;;;;;;;;;23.00;41.50;;;;;;6310788;27;20129;-54
2022/03/13 16:33:36;;;;;;;;;;;23.20;41.70;;;;;;6311566;27;19931;-51
2022/03/13 16:36:40;;;;;;;;;;;23.30;41.70;;;;;;6304838;27;20296;-54
2022/03/13 16:39:43;;;;;;;;;;;23.40;41.60;;;;;;6311688;27;20233;-53
2022/03/13 16:42:44;;;;;;;;;;;23.00;40.90;;;;;;6308328;27;20469;-51
2022/03/13 16:45:46;;;;;;;;;;;23.20;41.60;;;;;;6308463;27;20107;-54
2022/03/13 16:48:48;;;;;;;;;;;23.00;41.60;;;;;;6307573;27;20060;-53
2022/03/13 16:51:49;;;;;;;;;;;23.40;41.70;;;;;;6309409;27;20722;-52
2022/03/13 16:54:51;;;;;;;;;;;23.10;41.40;;;;;;6303485;27;20051;-54
2022/03/13 16:57:54;;;;;;;;;;;23.30;41.60;;;;;;6303774;27;20050;-53
2022/03/13 17:00:55;;;;;;;;;;;23.00;41.50;;;;;;6308801;27;19987;-54
2022/03/13 17:03:57;;;;;;;;;;;23.30;41.70;;;;;;6312387;27;19931;-53
2022/03/13 17:06:59;;;;;;;;;;;23.30;41.70;;;;;;6312312;27;20665;-53
2022/03/13 17:10:01;;;;;;;;;;;23.20;41.40;;;;;;6311392;27;20019;-52
2022/03/13 17:13:02;;;;;;;;;;;23.40;41.60;;;;;;6306782;27;20462;-55
2022/03/13 17:16:04;;;;;;;;;;;23.60;41.80;;;;;;6309171;27;20390;-51
2022/03/13 17:19:06;;;;;;;;;;;23.40;41.60;;;;;;6311136;27;20462;-57
2022/03/13 17:22:08;;;;;;;;;;;23.10;41.40;;;;;;6311417;27;19932;-55
2022/03/13 17:25:10;;;;;;;;;;;23.10;41.40;;;;;;6314377;27;20231;-52
2022/03/13 17:28:12;;;;;;;;;;;23.80;41.90;;;;;;6312979;27;20037;-56
2022/03/13 17:31:13;;;;;;;;;;;23.40;41.60;;;;;;6314302;27;20086;-56
2022/03/13 17:34:15;;;;;;;;;;;23.20;41.60;;;;;;6315018;27;19931;-55
2022/03/13 17:37:18;;;;;;;;;;;23.00;41.40;;;;;;6297474;27;20442;-53
2022/03/13 17:40:20;;;;;;;;;;;23.30;41.60;;;;;;6311839;27;19924;-53
2022/03/13 17:43:22;;;;;;;;;;;23.50;41.80;;;;;;6310866;27;19931;-54